Time;durP1;ratioP1;P1;durP2;ratioP2;P2;SDS_P1;SDS_P2;PMS_P1;PMS_P2;Temp;Humidity;BMP_temperature;BMP_pressure;BME280_temperature;BME280_humidity;BME280_pressure;Samples;Min_cycle;Max_cycle;Signal;HPM_P1;HPM_P2
2023/06/09 00:00:04;;;;;;;10.60;4.05;;;20.70;83.30;;;;;;4991967;28;20030;-78
2023/06/09 00:02:30;;;;;;;8.88;4.15;;;20.60;82.90;;;;;;4992289;28;20022;-78
2023/06/09 00:04:56;;;;;;;7.30;3.67;;;20.60;82.60;;;;;;4999441;28;20275;-79
2023/06/09 00:07:22;;;;;;;5.68;3.38;;;20.50;82.50;;;;;;4991974;28;20022;-78
2023/06/09 00:09:48;;;;;;;13.23;4.03;;;20.50;82.40;;;;;;4990126;28;20019;-78
2023/06/09 00:12:13;;;;;;;12.13;3.88;;;20.40;82.30;;;;;;4992815;28;20033;-79
2023/06/09 00:14:40;;;;;;;11.68;3.88;;;20.30;82.10;;;;;;4992653;28;20479;-78
2023/06/09 00:17:08;;;;;;;8.55;3.53;;;20.30;82.00;;;;;;4993093;28;20019;-78
2023/06/09 00:19:35;;;;;;;7.70;3.58;;;20.30;81.80;;;;;;4996926;28;20026;-78
2023/06/09 00:22:05;;;;;;;7.65;3.47;;;20.30;81.80;;;;;;4991101;28;20131;-78
2023/06/09 00:24:30;;;;;;;9.13;3.47;;;20.30;82.10;;;;;;4993077;28;20019;-78
2023/06/09 00:26:56;;;;;;;12.10;3.97;;;20.20;82.00;;;;;;4986792;28;20033;-78
2023/06/09 00:29:22;;;;;;;12.43;3.83;;;20.20;81.90;;;;;;4993461;28;20033;-78
2023/06/09 00:31:48;;;;;;;9.15;3.53;;;20.20;82.10;;;;;;4994770;28;20025;-79
2023/06/09 00:34:14;;;;;;;9.73;3.42;;;20.20;82.70;;;;;;5000455;28;20022;-79
2023/06/09 00:36:42;;;;;;;8.70;3.58;;;20.10;82.30;;;;;;4992712;28;20065;-79
2023/06/09 00:39:09;;;;;;;7.15;3.38;;;20.00;81.90;;;;;;4993939;28;20511;-78
2023/06/09 00:41:39;;;;;;;6.70;3.60;;;20.00;81.60;;;;;;4993531;28;20053;-78
2023/06/09 00:44:05;;;;;;;11.38;3.60;;;19.90;81.30;;;;;;4992224;28;20033;-78
2023/06/09 00:46:31;;;;;;;7.50;3.75;;;19.90;81.40;;;;;;4990717;28;20026;-78
2023/06/09 00:48:57;;;;;;;9.98;3.72;;;19.80;82.10;;;;;;4994577;28;20061;-78
2023/06/09 00:51:23;;;;;;;8.13;4.28;;;19.70;81.30;;;;;;4992569;28;20026;-79
2023/06/09 00:53:49;;;;;;;10.93;3.60;;;19.70;81.40;;;;;;4995306;28;20333;-80
2023/06/09 00:56:15;;;;;;;6.60;3.35;;;19.60;81.40;;;;;;4995545;28;20025;-80
2023/06/09 00:58:41;;;;;;;11.40;3.90;;;19.60;81.40;;;;;;4990436;28;20097;-80
2023/06/09 01:01:08;;;;;;;9.52;3.33;;;19.50;81.20;;;;;;4990168;28;20556;-80
2023/06/09 01:03:33;;;;;;;7.32;3.47;;;19.50;81.30;;;;;;4994983;28;20462;-80
2023/06/09 01:06:12;;;;;;;12.38;3.95;;;19.40;81.30;;;;;;4991517;28;20054;-80
2023/06/09 01:08:50;;;;;;;11.13;3.88;;;19.40;81.30;;;;;;5004583;28;20487;-80
2023/06/09 01:11:41;;;;;;;6.13;3.42;;;19.40;81.40;;;;;;4994723;28;20479;-80
2023/06/09 01:14:19;;;;;;;9.98;3.70;;;19.30;81.30;;;;;;4992771;28;20025;-80
2023/06/09 01:17:07;;;;;;;10.02;4.10;;;19.30;81.40;;;;;;4994375;28;20053;-80
2023/06/09 01:19:45;;;;;;;5.55;3.42;;;19.20;81.70;;;;;;4997125;28;20026;-80
2023/06/09 01:22:24;;;;;;;8.32;3.92;;;19.20;81.70;;;;;;4994249;28;20053;-79
2023/06/09 01:25:17;;;;;;;9.32;3.47;;;19.20;81.90;;;;;;4997032;28;20026;-80
2023/06/09 01:27:45;;;;;;;10.75;3.70;;;19.20;82.10;;;;;;4997453;28;20026;-81
2023/06/09 01:30:13;;;;;;;8.93;4.00;;;19.10;82.50;;;;;;4994045;28;20049;-78
2023/06/09 01:32:41;;;;;;;5.07;3.53;;;19.00;82.80;;;;;;4998514;28;20029;-77
2023/06/09 01:35:08;;;;;;;7.60;3.65;;;19.00;83.00;;;;;;4998099;28;20038;-78
2023/06/09 01:37:34;;;;;;;7.55;3.78;;;18.90;83.20;;;;;;4991396;28;20041;-78
2023/06/09 01:40:00;;;;;;;13.85;4.22;;;18.90;83.50;;;;;;4994817;28;20490;-78
2023/06/09 01:42:26;;;;;;;10.70;3.25;;;18.80;83.80;;;;;;4995660;28;20567;-78
2023/06/09 01:44:51;;;;;;;7.97;3.50;;;18.80;84.20;;;;;;4997513;28;20030;-78
2023/06/09 01:47:21;;;;;;;11.50;3.85;;;18.70;84.60;;;;;;4992924;28;20110;-78
2023/06/09 01:50:06;;;;;;;14.27;4.22;;;18.70;85.00;;;;;;4993692;28;20489;-78
2023/06/09 01:52:48;;;;;;;7.85;3.58;;;18.70;85.40;;;;;;4996751;28;20175;-79
2023/06/09 01:55:22;;;;;;;9.70;3.53;;;18.60;85.90;;;;;;4993483;28;20029;-79
2023/06/09 01:57:53;;;;;;;11.18;3.70;;;18.50;86.20;;;;;;4994419;28;20037;-78
2023/06/09 02:00:26;;;;;;;8.52;3.67;;;18.50;86.70;;;;;;5000901;28;20026;-79
2023/06/09 02:02:56;;;;;;;10.57;4.05;;;18.40;87.10;;;;;;4992133;28;20026;-78
2023/06/09 02:05:23;;;;;;;10.52;3.75;;;18.40;87.50;;;;;;4995174;28;20101;-78
2023/06/09 02:07:51;;;;;;;15.30;4.30;;;18.40;88.20;;;;;;4999282;28;20034;-79
2023/06/09 02:10:19;;;;;;;10.43;4.07;;;18.30;88.50;;;;;;4995236;28;20022;-79
2023/06/09 02:12:45;;;;;;;10.15;4.25;;;18.30;88.80;;;;;;4993242;28;20021;-78
2023/06/09 02:15:10;;;;;;;13.85;4.05;;;18.30;89.20;;;;;;5000472;28;20371;-78
2023/06/09 02:17:36;;;;;;;11.23;4.13;;;18.30;89.40;;;;;;4996979;28;20044;-78
2023/06/09 02:20:03;;;;;;;12.00;4.63;;;18.20;89.80;;;;;;4997312;28;20048;-79
2023/06/09 02:22:29;;;;;;;6.25;4.13;;;18.10;90.10;;;;;;4995140;28;20033;-78
2023/06/09 02:24:55;;;;;;;16.55;5.22;;;18.10;90.30;;;;;;4995404;28;20017;-79
2023/06/09 02:27:21;;;;;;;14.45;4.32;;;18.00;90.50;;;;;;4992878;28;20109;-78
2023/06/09 02:29:47;;;;;;;12.90;4.25;;;18.00;90.70;;;;;;4995415;28;20031;-78
2023/06/09 02:32:12;;;;;;;15.30;4.22;;;18.00;90.80;;;;;;4997788;28;20084;-79
2023/06/09 02:34:38;;;;;;;16.27;4.90;;;18.00;90.90;;;;;;5011151;28;20033;-78
2023/06/09 02:37:07;;;;;;;15.85;4.53;;;17.90;91.10;;;;;;4998788;28;20030;-78
2023/06/09 02:39:33;;;;;;;13.90;4.82;;;17.90;91.20;;;;;;4997043;28;20092;-78
2023/06/09 02:41:58;;;;;;;12.10;4.20;;;17.90;91.40;;;;;;4998125;28;20026;-78
2023/06/09 02:44:24;;;;;;;12.65;4.60;;;17.90;91.70;;;;;;4992935;28;20058;-79
2023/06/09 02:46:50;;;;;;;11.93;4.70;;;17.80;91.90;;;;;;4989161;28;20026;-79
2023/06/09 02:49:16;;;;;;;11.10;4.95;;;17.80;92.00;;;;;;5010344;28;20006;-81
2023/06/09 02:51:42;;;;;;;11.73;4.63;;;17.80;92.10;;;;;;5004773;28;20587;-87
2023/06/09 02:54:08;;;;;;;13.57;5.32;;;17.80;92.30;;;;;;5004652;28;20015;-87
2023/06/09 02:56:36;;;;;;;12.13;5.30;;;17.70;92.70;;;;;;5002800;28;20114;-87
2023/06/09 02:59:02;;;;;;;13.45;5.25;;;17.70;92.90;;;;;;5003399;28;20026;-87
2023/06/09 03:01:34;;;;;;;8.43;4.78;;;17.70;92.90;;;;;;5001892;28;20024;-84
2023/06/09 03:04:06;;;;;;;13.40;5.20;;;17.60;93.00;;;;;;5002243;28;20414;-87
2023/06/09 03:06:36;;;;;;;10.20;4.95;;;17.60;93.40;;;;;;5001946;28;20022;-87
2023/06/09 03:09:03;;;;;;;14.77;5.03;;;17.50;93.50;;;;;;5006442;28;20061;-84
2023/06/09 03:11:29;;;;;;;16.05;5.32;;;17.50;93.70;;;;;;5002214;28;20366;-87
2023/06/09 03:13:55;;;;;;;14.60;5.47;;;17.60;93.90;;;;;;5003935;28;20058;-85
2023/06/09 03:16:21;;;;;;;15.55;5.22;;;17.50;94.10;;;;;;5003727;28;20025;-87
2023/06/09 03:18:47;;;;;;;13.52;5.22;;;17.60;94.20;;;;;;5005939;28;20042;-84
2023/06/09 03:21:13;;;;;;;18.38;4.72;;;17.60;94.40;;;;;;5003545;28;20061;-88
2023/06/09 03:23:40;;;;;;;10.55;4.70;;;17.60;94.50;;;;;;5006438;28;20166;-89
2023/06/09 03:26:06;;;;;;;19.50;5.40;;;17.60;94.60;;;;;;5003755;28;20361;-88
2023/06/09 03:28:32;;;;;;;12.90;5.32;;;17.50;94.90;;;;;;5001868;28;20055;-85
2023/06/09 03:30:58;;;;;;;15.93;5.03;;;17.60;95.10;;;;;;5001006;28;21155;-82
2023/06/09 03:33:25;;;;;;;14.45;5.13;;;17.50;95.30;;;;;;5003610;28;20026;-86
2023/06/09 03:35:51;;;;;;;15.98;5.45;;;17.50;95.30;;;;;;5000608;28;20010;-84
2023/06/09 03:38:17;;;;;;;13.60;4.95;;;17.60;95.50;;;;;;5002358;28;20034;-85
2023/06/09 03:40:42;;;;;;;12.02;4.95;;;17.60;95.40;;;;;;5003429;28;20040;-83
2023/06/09 03:43:10;;;;;;;19.20;5.43;;;17.60;95.50;;;;;;5002728;28;20045;-86
2023/06/09 03:45:36;;;;;;;16.40;4.93;;;17.60;95.70;;;;;;4999791;28;20037;-85
2023/06/09 03:48:04;;;;;;;13.55;5.25;;;17.60;95.70;;;;;;5000496;28;20022;-83
2023/06/09 03:50:30;;;;;;;16.40;5.50;;;17.60;95.90;;;;;;5001189;28;20766;-88
2023/06/09 03:52:55;;;;;;;17.92;5.65;;;17.60;96.00;;;;;;4999531;28;20085;-82
2023/06/09 03:55:22;;;;;;;19.90;5.30;;;17.60;96.20;;;;;;4999996;28;20037;-87
2023/06/09 03:57:48;;;;;;;14.57;5.40;;;17.60;96.20;;;;;;5005802;28;20029;-88
2023/06/09 04:00:16;;;;;;;17.10;5.50;;;17.60;96.30;;;;;;5000898;28;20042;-86
2023/06/09 04:02:42;;;;;;;18.48;5.45;;;17.70;96.40;;;;;;4997211;28;20580;-82
2023/06/09 04:05:08;;;;;;;14.57;6.00;;;17.70;96.60;;;;;;5002426;28;20033;-84
2023/06/09 04:07:33;;;;;;;15.57;5.45;;;17.60;96.70;;;;;;5002524;28;20018;-87
2023/06/09 04:09:59;;;;;;;13.48;5.43;;;17.60;96.80;;;;;;5005538;28;20019;-78
2023/06/09 04:12:25;;;;;;;17.00;5.30;;;17.70;97.00;;;;;;4991952;28;20044;-79
2023/06/09 04:14:51;;;;;;;20.63;5.65;;;17.70;97.20;;;;;;4991757;28;20092;-78
2023/06/09 04:17:16;;;;;;;14.38;5.32;;;17.60;97.40;;;;;;4988613;28;20578;-78
2023/06/09 04:19:42;;;;;;;13.68;5.13;;;17.70;97.60;;;;;;4994596;28;20128;-77
2023/06/09 04:22:10;;;;;;;15.85;5.60;;;17.70;97.70;;;;;;4994362;28;20378;-79
2023/06/09 04:24:35;;;;;;;16.77;5.43;;;17.70;97.80;;;;;;4995177;28;20161;-80
2023/06/09 04:27:03;;;;;;;16.38;5.80;;;17.70;97.90;;;;;;4991516;28;20482;-78
2023/06/09 04:29:32;;;;;;;14.52;6.10;;;17.70;98.10;;;;;;4991349;28;20048;-78
2023/06/09 04:31:59;;;;;;;22.90;6.55;;;17.80;98.20;;;;;;4989900;28;20432;-78
2023/06/09 04:34:28;;;;;;;16.88;5.85;;;17.80;98.20;;;;;;4992342;28;20063;-78
2023/06/09 04:36:56;;;;;;;19.73;6.82;;;17.90;98.50;;;;;;4994058;28;20041;-79
2023/06/09 04:39:29;;;;;;;12.68;5.93;;;17.90;98.50;;;;;;4992562;28;20026;-80
2023/06/09 04:41:54;;;;;;;17.63;6.45;;;17.90;98.60;;;;;;5000251;28;20123;-79
2023/06/09 04:44:21;;;;;;;18.42;6.07;;;17.90;98.60;;;;;;4997455;28;20172;-78
2023/06/09 04:46:49;;;;;;;16.52;6.57;;;18.00;98.80;;;;;;4993887;28;20034;-79
2023/06/09 04:49:15;;;;;;;21.38;6.18;;;18.00;98.80;;;;;;4994975;28;20022;-78
2023/06/09 04:51:47;;;;;;;14.73;5.70;;;18.10;98.90;;;;;;4993861;28;20041;-79
2023/06/09 04:54:16;;;;;;;18.80;6.28;;;18.10;98.90;;;;;;4994062;28;20026;-79
2023/06/09 04:56:44;;;;;;;17.20;6.00;;;18.20;98.90;;;;;;4996344;28;20025;-79
2023/06/09 04:59:13;;;;;;;18.92;6.55;;;18.20;99.10;;;;;;4997889;28;20041;-79
2023/06/09 05:01:40;;;;;;;16.10;6.20;;;18.20;99.10;;;;;;4996705;28;20104;-78
2023/06/09 05:04:08;;;;;;;15.80;5.90;;;18.30;99.20;;;;;;4992900;28;20109;-78
2023/06/09 05:06:36;;;;;;;14.77;6.30;;;18.40;99.20;;;;;;4998074;28;20026;-79
2023/06/09 05:09:02;;;;;;;15.15;6.20;;;18.50;99.10;;;;;;4997026;28;20041;-80
2023/06/09 05:11:30;;;;;;;23.13;6.90;;;18.50;99.10;;;;;;4993214;28;20034;-79
2023/06/09 05:13:56;;;;;;;15.68;6.40;;;18.50;99.10;;;;;;4995448;28;20387;-79
2023/06/09 05:16:25;;;;;;;17.05;6.85;;;18.60;98.90;;;;;;4998035;28;20102;-78
2023/06/09 05:18:51;;;;;;;17.27;6.63;;;18.70;98.90;;;;;;4993908;28;20031;-78
2023/06/09 05:21:17;;;;;;;16.38;6.38;;;18.80;98.80;;;;;;4993466;28;20045;-79
2023/06/09 05:23:43;;;;;;;22.55;6.88;;;18.90;98.70;;;;;;4993787;28;20554;-78
2023/06/09 05:26:08;;;;;;;18.23;7.63;;;19.00;98.60;;;;;;4994838;28;20033;-79
2023/06/09 05:28:34;;;;;;;20.83;7.18;;;19.10;98.60;;;;;;4993374;28;20014;-79
2023/06/09 05:31:02;;;;;;;16.50;6.93;;;19.10;98.40;;;;;;4994998;28;20121;-79
2023/06/09 05:33:30;;;;;;;16.65;6.80;;;19.10;98.50;;;;;;4996259;28;20030;-78
2023/06/09 05:35:56;;;;;;;20.38;7.43;;;19.20;98.60;;;;;;4996836;28;20455;-78
2023/06/09 05:38:25;;;;;;;17.50;6.68;;;19.30;98.50;;;;;;4994188;28;20102;-78
2023/06/09 05:40:51;;;;;;;19.17;7.35;;;19.40;98.40;;;;;;4997202;28;20138;-79
2023/06/09 05:43:18;;;;;;;17.67;7.15;;;19.40;98.30;;;;;;4993146;28;20394;-79
2023/06/09 05:45:43;;;;;;;20.17;7.40;;;19.50;98.30;;;;;;4996375;28;20026;-79
2023/06/09 05:48:09;;;;;;;15.20;6.78;;;19.50;98.30;;;;;;4994385;28;20027;-80
2023/06/09 05:50:35;;;;;;;21.95;7.25;;;19.60;98.30;;;;;;4993689;28;20049;-79
2023/06/09 05:53:00;;;;;;;12.45;7.20;;;19.70;98.20;;;;;;4995692;28;20159;-80
2023/06/09 05:55:26;;;;;;;16.10;7.03;;;19.90;97.90;;;;;;4995938;28;20125;-79
2023/06/09 05:57:52;;;;;;;16.42;6.65;;;20.00;97.80;;;;;;5011683;28;20036;-88
2023/06/09 06:00:18;;;;;;;20.73;7.55;;;20.10;97.50;;;;;;5007027;28;20482;-87
2023/06/09 06:02:46;;;;;;;18.85;7.50;;;20.20;97.30;;;;;;5001181;28;20038;-86
2023/06/09 06:05:12;;;;;;;16.45;6.80;;;20.20;97.30;;;;;;4997998;28;20482;-79
2023/06/09 06:07:38;;;;;;;18.50;7.18;;;20.30;97.40;;;;;;4995019;28;20026;-80
2023/06/09 06:10:09;;;;;;;12.40;7.22;;;20.40;97.20;;;;;;4996188;28;20030;-79
2023/06/09 06:12:35;;;;;;;16.92;7.85;;;20.50;97.00;;;;;;4998619;28;20150;-79
2023/06/09 06:15:01;;;;;;;19.25;7.70;;;20.60;96.80;;;;;;4995216;28;20086;-79
2023/06/09 06:17:26;;;;;;;14.30;7.10;;;20.70;97.00;;;;;;4992853;28;20049;-79
2023/06/09 06:19:52;;;;;;;13.50;7.70;;;20.70;96.60;;;;;;4998076;28;20028;-80
2023/06/09 06:22:18;;;;;;;22.48;7.78;;;20.80;96.50;;;;;;4994213;28;20037;-79
2023/06/09 06:24:43;;;;;;;11.05;7.22;;;20.90;96.30;;;;;;4994785;28;20029;-79
2023/06/09 06:27:11;;;;;;;12.68;7.20;;;21.00;96.30;;;;;;5007835;28;20030;-79
2023/06/09 06:29:40;;;;;;;17.42;6.80;;;21.00;96.30;;;;;;4994398;28;20861;-80
2023/06/09 06:32:07;;;;;;;15.10;7.78;;;21.10;96.10;;;;;;4994585;28;20022;-80
2023/06/09 06:34:33;;;;;;;12.32;7.20;;;21.30;96.00;;;;;;4997975;28;20030;-80
2023/06/09 06:36:58;;;;;;;18.17;8.05;;;21.40;95.90;;;;;;5012658;28;20034;-80
2023/06/09 06:39:24;;;;;;;20.70;7.57;;;21.40;95.60;;;;;;4994459;28;20062;-80
2023/06/09 06:41:49;;;;;;;14.85;7.78;;;21.60;95.40;;;;;;4995383;28;20495;-80
2023/06/09 06:44:15;;;;;;;18.80;7.55;;;21.70;95.40;;;;;;4996282;28;20036;-80
2023/06/09 06:46:41;;;;;;;15.02;7.55;;;21.80;95.20;;;;;;4994456;28;20057;-80
2023/06/09 06:49:06;;;;;;;15.95;7.90;;;21.90;94.90;;;;;;4994714;28;20087;-81
2023/06/09 06:51:32;;;;;;;16.80;7.85;;;22.00;94.80;;;;;;4993871;28;20040;-80
2023/06/09 06:53:57;;;;;;;14.20;8.20;;;22.10;94.80;;;;;;4995355;28;20285;-81
2023/06/09 06:56:24;;;;;;;11.43;6.88;;;22.20;94.50;;;;;;5009783;28;20030;-80
2023/06/09 06:58:50;;;;;;;19.60;7.05;;;22.40;94.10;;;;;;5001731;28;20040;-80
2023/06/09 07:01:17;;;;;;;11.65;7.05;;;22.50;93.90;;;;;;4994691;28;20110;-80
2023/06/09 07:03:43;;;;;;;18.10;7.90;;;22.60;93.70;;;;;;4996104;28;20029;-82
2023/06/09 07:06:09;;;;;;;13.60;7.68;;;22.80;93.40;;;;;;4993221;28;20031;-80
2023/06/09 07:08:38;;;;;;;13.15;7.05;;;22.90;93.10;;;;;;4992136;28;20048;-81
2023/06/09 07:11:06;;;;;;;13.60;7.10;;;22.90;93.30;;;;;;4995447;28;20030;-80
2023/06/09 07:13:31;;;;;;;15.90;7.32;;;23.10;93.00;;;;;;4994424;28;20214;-80
2023/06/09 07:16:00;;;;;;;12.27;7.20;;;23.20;92.70;;;;;;5000345;28;20041;-80
2023/06/09 07:18:29;;;;;;;14.77;7.00;;;23.30;92.60;;;;;;4998845;28;20493;-84
2023/06/09 07:20:54;;;;;;;19.48;8.13;;;23.40;92.60;;;;;;4995526;28;20030;-80
2023/06/09 07:23:20;;;;;;;16.52;7.32;;;23.50;91.80;;;;;;4991281;28;20109;-81
2023/06/09 07:25:46;;;;;;;10.85;7.45;;;23.50;91.60;;;;;;4996226;28;20080;-79
2023/06/09 07:28:11;;;;;;;13.45;7.50;;;23.70;91.20;;;;;;4995313;28;20697;-79
2023/06/09 07:30:41;;;;;;;9.77;6.95;;;23.80;90.70;;;;;;4996136;28;20084;-80
2023/06/09 07:33:07;;;;;;;10.63;7.05;;;24.00;90.70;;;;;;4996219;28;20077;-79
2023/06/09 07:35:33;;;;;;;10.60;6.97;;;24.20;90.30;;;;;;4999727;28;20023;-79
2023/06/09 07:37:58;;;;;;;11.88;7.18;;;24.30;90.20;;;;;;5005666;28;20025;-81
2023/06/09 07:40:24;;;;;;;12.35;7.75;;;24.50;90.30;;;;;;4993981;28;20505;-79
2023/06/09 07:42:50;;;;;;;12.05;8.15;;;24.60;89.40;;;;;;4993316;28;20382;-78
2023/06/09 07:45:16;;;;;;;20.73;11.18;;;24.70;89.20;;;;;;4994191;28;20463;-78
2023/06/09 07:47:41;;;;;;;12.68;7.72;;;25.00;89.70;;;;;;4995906;28;20033;-78
2023/06/09 07:50:09;;;;;;;10.13;6.88;;;25.20;87.30;;;;;;4992489;28;20070;-78
2023/06/09 07:52:37;;;;;;;15.68;7.35;;;25.30;85.20;;;;;;4992347;28;20533;-80
2023/06/09 07:55:03;;;;;;;11.93;6.97;;;25.40;85.40;;;;;;4992862;28;20298;-79
2023/06/09 07:57:29;;;;;;;12.65;7.00;;;25.60;85.70;;;;;;4993163;28;20454;-79
2023/06/09 07:59:55;;;;;;;11.50;6.68;;;25.80;85.20;;;;;;4992856;28;20046;-79
2023/06/09 08:02:20;;;;;;;12.38;8.00;;;26.00;83.70;;;;;;4993737;28;20147;-80
2023/06/09 08:04:46;;;;;;;11.48;6.65;;;26.10;83.20;;;;;;4994627;28;20109;-79
2023/06/09 08:07:12;;;;;;;9.15;6.55;;;26.30;82.30;;;;;;4992582;28;20030;-79
2023/06/09 08:09:37;;;;;;;9.00;7.07;;;26.40;81.70;;;;;;4995370;28;20117;-78
2023/06/09 08:12:06;;;;;;;12.85;6.40;;;26.60;81.20;;;;;;4997132;28;20023;-79
2023/06/09 08:14:34;;;;;;;10.63;6.55;;;26.70;80.40;;;;;;4995328;28;20108;-80
2023/06/09 08:17:00;;;;;;;157.38;67.53;;;26.90;80.00;;;;;;4992436;28;20030;-81
2023/06/09 08:19:25;;;;;;;80.63;35.95;;;27.10;78.20;;;;;;4991269;28;20042;-80
2023/06/09 08:21:51;;;;;;;8.25;6.60;;;27.40;77.80;;;;;;4998499;28;20018;-80
2023/06/09 08:24:17;;;;;;;10.85;7.78;;;27.80;77.10;;;;;;4995182;28;20445;-81
2023/06/09 08:26:43;;;;;;;10.65;6.63;;;28.10;75.50;;;;;;4984495;28;20029;-80
2023/06/09 08:29:10;;;;;;;10.00;6.53;;;28.30;74.10;;;;;;4991721;28;20049;-79
2023/06/09 08:31:39;;;;;;;10.73;6.45;;;28.50;73.90;;;;;;4996608;28;20422;-79
2023/06/09 08:34:05;;;;;;;9.13;7.00;;;28.80;73.40;;;;;;4994138;28;20118;-81
2023/06/09 08:36:31;;;;;;;8.20;6.57;;;29.00;71.60;;;;;;4991487;28;20415;-79
2023/06/09 08:38:57;;;;;;;7.90;6.75;;;29.40;71.90;;;;;;4995938;28;21989;-80
2023/06/09 08:41:27;;;;;;;8.80;5.95;;;29.70;70.70;;;;;;4988950;28;20137;-78
2023/06/09 08:43:53;;;;;;;9.63;6.28;;;29.80;66.00;;;;;;4994629;28;20010;-79
2023/06/09 08:46:21;;;;;;;9.18;6.13;;;30.10;66.50;;;;;;4994180;28;20030;-79
2023/06/09 08:48:53;;;;;;;6.72;5.78;;;30.30;65.60;;;;;;4991450;28;20108;-80
2023/06/09 08:51:21;;;;;;;;;;;30.60;64.20;;;;;;4994187;28;20030;-80
2023/06/09 08:53:51;;;;;;;11.50;5.85;;;30.80;61.90;;;;;;4991226;28;19921;-79
2023/06/09 08:56:16;;;;;;;8.95;6.03;;;30.80;63.10;;;;;;4995456;28;20064;-79
2023/06/09 08:58:42;;;;;;;6.40;5.80;;;31.10;63.80;;;;;;4994659;28;20374;-79
2023/06/09 09:01:08;;;;;;;10.50;5.70;;;31.10;61.80;;;;;;4993805;28;20466;-79
2023/06/09 09:03:34;;;;;;;6.57;5.93;;;30.90;60.10;;;;;;4998364;28;20485;-80
2023/06/09 09:06:00;;;;;;;6.18;5.65;;;30.80;60.00;;;;;;4993572;28;20095;-80
2023/06/09 09:08:26;;;;;;;8.27;5.85;;;30.50;60.90;;;;;;4995108;28;20030;-79
2023/06/09 09:10:52;;;;;;;6.53;5.88;;;30.30;61.10;;;;;;4999119;28;20061;-79
2023/06/09 09:13:18;;;;;;;9.10;6.35;;;30.30;61.00;;;;;;4992643;28;20022;-81
2023/06/09 09:15:49;;;;;;;49.90;21.45;;;30.60;61.70;;;;;;4997153;28;20111;-84
2023/06/09 09:18:19;;;;;;;7.35;6.30;;;30.70;59.90;;;;;;5002843;28;20028;-82
2023/06/09 09:20:45;;;;;;;10.90;5.68;;;30.80;60.70;;;;;;5005738;28;20290;-90
2023/06/09 09:23:14;;;;;;;6.38;5.78;;;31.10;60.80;;;;;;4990682;28;20024;-86
2023/06/09 09:25:45;;;;;;;6.50;5.90;;;31.20;59.40;;;;;;4955714;28;20045;-87
2023/06/09 09:28:15;;;;;;;6.25;5.65;;;31.30;60.00;;;;;;4966522;28;20426;-87
2023/06/09 09:31:01;;;;;;;8.05;6.30;;;31.70;58.20;;;;;;4967821;28;20234;-87
2023/06/09 09:33:27;;;;;;;7.97;5.47;;;31.70;57.70;;;;;;4973095;28;20030;-85
2023/06/09 09:35:55;;;;;;;7.20;5.60;;;31.40;57.80;;;;;;4971402;28;20902;-89
2023/06/09 09:38:24;;;;;;;8.65;5.82;;;31.50;57.20;;;;;;4970315;28;20539;-89
2023/06/09 09:40:52;;;;;;;7.57;5.57;;;31.60;57.40;;;;;;4962689;28;20100;-85
2023/06/09 09:43:19;;;;;;;11.90;5.70;;;31.60;56.60;;;;;;4960899;28;20122;-81
2023/06/09 09:45:50;;;;;;;15.50;7.45;;;31.60;56.20;;;;;;4959381;28;20046;-90
2023/06/09 09:48:19;;;;;;;6.80;6.10;;;31.70;57.50;;;;;;4958854;28;20085;-82
2023/06/09 09:50:47;;;;;;;7.95;6.07;;;31.60;57.20;;;;;;4968276;28;20117;-83
2023/06/09 09:53:14;;;;;;;8.75;6.18;;;31.90;57.30;;;;;;4970052;28;20084;-83
2023/06/09 09:55:45;;;;;;;5.93;5.45;;;32.00;56.50;;;;;;4965142;28;20901;-85
2023/06/09 09:58:14;;;;;;;7.38;5.25;;;31.90;56.10;;;;;;4969857;28;20034;-82
2023/06/09 10:00:46;;;;;;;10.55;5.78;;;32.10;55.40;;;;;;4978235;28;20057;-80
2023/06/09 10:03:19;;;;;;;8.40;5.53;;;32.20;54.80;;;;;;4983320;28;20038;-87
2023/06/09 10:05:49;;;;;;;5.80;5.40;;;32.00;55.10;;;;;;4968046;28;20959;-87
2023/06/09 10:08:21;;;;;;;6.93;5.55;;;32.10;54.60;;;;;;4969093;28;20133;-84
2023/06/09 10:10:47;;;;;;;7.00;6.13;;;32.30;54.90;;;;;;4969057;28;20289;-83
2023/06/09 10:13:14;;;;;;;128.40;61.45;;;32.70;55.00;;;;;;4962251;28;20024;-83
2023/06/09 10:15:43;;;;;;;8.55;5.40;;;33.00;53.50;;;;;;4959788;28;20030;-82
2023/06/09 10:18:11;;;;;;;7.07;5.63;;;33.00;54.20;;;;;;4984829;28;20030;-83
2023/06/09 10:20:42;;;;;;;5.65;5.10;;;33.40;53.70;;;;;;4953066;28;20096;-82
2023/06/09 10:23:09;;;;;;;6.10;5.13;;;33.60;52.60;;;;;;4954206;28;20106;-82
2023/06/09 10:25:35;;;;;;;5.13;4.72;;;33.80;52.00;;;;;;4959480;28;20711;-81
2023/06/09 10:28:01;;;;;;;7.18;4.90;;;33.80;50.70;;;;;;4968363;28;20111;-83
2023/06/09 10:30:27;;;;;;;9.10;5.05;;;33.60;51.90;;;;;;4957542;28;20030;-90
2023/06/09 10:33:14;;;;;;;5.90;5.38;;;33.80;51.70;;;;;;4964069;28;20019;-88
2023/06/09 10:35:41;;;;;;;6.93;4.97;;;34.00;51.00;;;;;;4967204;28;20031;-87
2023/06/09 10:38:29;;;;;;;5.95;5.38;;;34.50;50.10;;;;;;4982824;28;20018;-85
2023/06/09 10:41:10;;;;;;;9.43;5.45;;;34.70;49.40;;;;;;4984607;28;20033;-84
2023/06/09 10:44:06;;;;;;;6.72;4.93;;;34.60;49.00;;;;;;4966207;28;20038;-86
2023/06/09 10:46:43;;;;;;;5.70;5.20;;;34.60;48.10;;;;;;4951809;28;20675;-83
2023/06/09 10:49:35;;;;;;;6.82;5.40;;;34.10;49.00;;;;;;4953128;28;20030;-82
2023/06/09 10:52:03;;;;;;;8.68;5.32;;;33.80;49.40;;;;;;4951915;28;20445;-83
2023/06/09 10:54:35;;;;;;;5.95;4.72;;;33.90;49.90;;;;;;4962773;28;20298;-84
2023/06/09 10:57:03;;;;;;;7.32;4.95;;;34.00;49.80;;;;;;4954048;28;21119;-82
2023/06/09 10:59:32;;;;;;;6.57;5.32;;;34.20;48.90;;;;;;4952077;28;20068;-84
2023/06/09 11:02:01;;;;;;;7.95;5.05;;;34.50;48.40;;;;;;4959007;28;20022;-85
2023/06/09 11:04:45;;;;;;;7.22;5.47;;;34.40;49.50;;;;;;4952887;28;20403;-84
2023/06/09 11:07:15;;;;;;;8.65;5.43;;;34.30;49.20;;;;;;4966112;28;20029;-84
2023/06/09 11:10:00;;;;;;;5.82;5.22;;;34.40;49.00;;;;;;4961457;28;20668;-85
2023/06/09 11:12:56;;;;;;;6.03;5.47;;;34.10;48.30;;;;;;4961051;28;20291;-85
2023/06/09 11:15:23;;;;;;;6.47;5.65;;;33.80;49.20;;;;;;4956022;28;20030;-85
2023/06/09 11:17:50;;;;;;;6.50;5.90;;;33.70;49.60;;;;;;4963933;28;20037;-87
2023/06/09 11:20:24;;;;;;;6.05;5.55;;;33.50;49.40;;;;;;4957089;28;20608;-85
2023/06/09 11:22:50;;;;;;;7.40;5.63;;;33.60;49.80;;;;;;4954166;28;20030;-86
2023/06/09 11:25:22;;;;;;;9.15;5.90;;;33.70;49.60;;;;;;4953818;28;20026;-86
2023/06/09 11:28:09;;;;;;;7.05;5.80;;;33.60;49.50;;;;;;4954945;28;20023;-83
2023/06/09 11:31:00;;;;;;;10.02;5.22;;;33.70;49.80;;;;;;4957633;28;20533;-83
2023/06/09 11:33:49;;;;;;;8.52;5.97;;;33.40;50.60;;;;;;4955721;28;20086;-84
2023/06/09 11:36:30;;;;;;;8.65;5.72;;;33.40;50.20;;;;;;4959508;28;20378;-83
2023/06/09 11:39:04;;;;;;;11.70;5.63;;;33.70;49.30;;;;;;4957874;28;20477;-80
2023/06/09 11:41:31;;;;;;;7.25;5.45;;;33.80;49.60;;;;;;4953193;28;20402;-80
2023/06/09 11:43:58;;;;;;;6.53;5.43;;;33.80;49.60;;;;;;4954156;28;20015;-81
2023/06/09 11:46:24;;;;;;;6.78;6.18;;;34.10;49.00;;;;;;4952544;28;20025;-80
2023/06/09 11:48:59;;;;;;;7.88;5.68;;;34.30;48.80;;;;;;4954121;28;20282;-80
2023/06/09 11:51:25;;;;;;;6.07;5.60;;;34.70;49.80;;;;;;4967283;28;20109;-84
2023/06/09 11:53:51;;;;;;;12.27;6.47;;;34.80;48.00;;;;;;4955044;28;20413;-83
2023/06/09 11:56:36;;;;;;;7.05;6.35;;;34.80;48.20;;;;;;4959311;28;20030;-81
2023/06/09 11:59:03;;;;;;;5.38;4.97;;;34.70;48.20;;;;;;4962963;28;20122;-81
2023/06/09 12:01:32;;;;;;;6.45;5.85;;;34.40;48.80;;;;;;4962523;28;20112;-81
2023/06/09 12:03:58;;;;;;;11.15;6.43;;;34.40;48.20;;;;;;4955446;28;20101;-81
2023/06/09 12:06:28;;;;;;;12.80;6.38;;;34.50;48.30;;;;;;4954181;28;20023;-81
2023/06/09 12:09:21;;;;;;;6.95;6.22;;;34.70;48.50;;;;;;4959074;28;20102;-82
2023/06/09 12:11:54;;;;;;;6.85;6.15;;;35.10;48.40;;;;;;4955538;28;20957;-81
2023/06/09 12:14:21;;;;;;;7.70;5.82;;;35.40;47.10;;;;;;4956575;28;20062;-82
2023/06/09 12:16:48;;;;;;;6.35;5.53;;;35.60;46.70;;;;;;4952448;28;20061;-80
2023/06/09 12:19:13;;;;;;;6.75;6.15;;;35.70;47.30;;;;;;4953474;28;20041;-79
2023/06/09 12:21:39;;;;;;;6.28;5.50;;;35.90;46.70;;;;;;4956313;28;20614;-80
2023/06/09 12:24:05;;;;;;;8.45;6.20;;;36.20;47.60;;;;;;4953644;28;20134;-79
2023/06/09 12:26:49;;;;;;;7.47;5.50;;;36.40;46.80;;;;;;4952964;28;20022;-80
2023/06/09 12:29:23;;;;;;;6.32;5.72;;;36.40;46.30;;;;;;4955714;28;20034;-79
2023/06/09 12:31:49;;;;;;;6.47;5.97;;;36.40;46.00;;;;;;4954608;28;21413;-80
2023/06/09 12:34:29;;;;;;;12.23;6.38;;;36.20;45.00;;;;;;4957017;28;20644;-81
2023/06/09 12:36:58;;;;;;;5.72;5.32;;;35.50;45.60;;;;;;4978446;28;20026;-82
2023/06/09 12:39:30;;;;;;;7.03;5.70;;;35.40;45.90;;;;;;4951808;28;20112;-83
2023/06/09 12:41:56;;;;;;;7.90;5.88;;;35.70;46.00;;;;;;4958034;28;20034;-81
2023/06/09 12:44:24;;;;;;;7.28;5.45;;;36.20;46.80;;;;;;4955794;28;20682;-84
2023/06/09 12:46:57;;;;;;;11.40;6.30;;;36.20;45.40;;;;;;4955095;28;20034;-81